Terminal Aerodrome Forecast
Issued by NWS Miami, FL

Home | Current Version | Previous Version | Text Only | Print | Product List | Glossary On
Versions: 1 2 3 4 5 6 7 8 9 10 11 12 13 14 15 16 17 18 19 20 21 22 23 24 25 26 27 28 29
000
FTUS42 KMFL 290904 AAA
TAFFLL
TAF AMD
KFLL 290904Z 2909/3006 19004KT P6SM FEW020 BKN200
      TEMPO 2909/2912 VRB03KT
     FM291600 19005KT P6SM VCSH SCT030 SCT060
     FM291900 16010KT P6SM VCTS SCT025CB SCT060 BKN250=

USA.gov is the U.S. government's official web portal to all federal, state and local government web resources and services.